Aérodrome :
LOGIN :

S'inscrire | Disclaimer

   EN    FR    IT 

 










Légende :    VFR   VFR Marginal   IFR   IFR Intensif   IFR Très Intensif
Visi : 
Plafond : 
>= 8 km
>= 3000ft
5 à 8 km
1000 à 3000 ft
1500m à 5 km
500 à 1000 ft
800 à 1500m
200 à 500 ft
< 800m
< 200 ft
Symboles :   Orages  Brouillard  Fortes neiges  Fortes précipitations  Vent > 20 kt
SIGMETs :   Divers  Orages  Givrage  Turbulence  Onde Orograph.  Cendres Volcan.







- Altitude de l'aérodrome : 505 ft
- Code IATA : SXB
- Voir les cartes d'approche


LFST - Strasbourg

DERNIER METAR :
  • 141300Z AUTO 24021G32KT CAVOK 09/M01 Q1000 TEMPO 3000 SHRA SCT030CB

METARs EXPIRÉS :
  • 141230Z AUTO 23014G25KT 200V260 CAVOK 09/M01 Q1001 TEMPO 25020G35KT 3000 SHRA SCT030CB
  • 141200Z AUTO 25019KT 220V280 9999 FEW041 09/00 Q1001 TEMPO 25020G35KT 3000 SHRA SCT030CB
  • 141130Z AUTO 22017KT 9999 SCT042 08/01 Q1002 TEMPO 25020G35KT 3000 SHRA SCT030CB
  • 141100Z AUTO 21013KT 9999 BKN041 BKN052 BKN064 07/01 Q1003 TEMPO 23020G33KT 2000 SHRAGS BKN025CB
  • 141030Z AUTO 21014KT 9999 SCT041 BKN050 07/01 Q1003 TEMPO 23020G33KT 2000 SHRAGS BKN025CB

TAF TAF LFST
Valide du 14 à 12h jusqu'au 15 à 12h UTC


141100Z 1412/1512 22015G25KT 9999 BKN040
PROB40
TEMPO 1412/1418 25020G35KT
TEMPO 1412/1503 3000 SHRA SCT030CB
PROB30
TEMPO 1419/1424 TSRAGS BKN010
BECMG 1503/1505 20015KT
TEMPO 1508/1512 4000 SHRA SCT040CB
Pas de NOTAMs connus pour ce terrain.
1 SIGMET publié pour la FIR Reims (LFEE) :
 
Turbulence forte
LFEE SIGMET 4 VALID 141300/141500 LFPW
LFEE REIMS FIR/UIR SEV TURB OBS AT 1300Z S OF N4700 AND W OF E00530 FL160/250 STNR NC=



MET'MAP, la Météo Aéronautique d'un coup d'oeil ! - Copyright ORBIFLY Décembre 2007 - Disclaimer

ORBIFLY MET'MAP TEAM :

Programmation & Développement : Alexandra Zaïnal
Conception & Développement : Baudouin d'Aumeries
Co-Programmation & Développement : Marc-Olivier Méhu
Soutien technique & logistique : Manuel Goepfert

Contact : metmap@orbifly.com




SOURCES & CREDITS :

   NOAA